TimeCST,TemperatureF,Dew PointF,Humidity,Sea Level PressureIn,VisibilityMPH,Wind Direction,Wind SpeedMPH,Gust SpeedMPH,PrecipitationIn,Events,Conditions,WindDirDegrees,DateUTC
12:53 AM,34.0,30.9,89,30.17,10.0,Calm,Calm,-,N/A,,Clear,0,2012-11-25 06:53:00
1:53 AM,35.1,32.0,89,30.15,10.0,Calm,Calm,-,N/A,,Clear,0,2012-11-25 07:53:00
2:53 AM,36.0,32.0,86,30.14,10.0,Calm,Calm,-,N/A,,Clear,0,2012-11-25 08:53:00
3:53 AM,33.1,30.9,92,30.13,10.0,Calm,Calm,-,N/A,,Clear,0,2012-11-25 09:53:00
4:53 AM,33.1,30.9,92,30.12,10.0,ESE,3.5,-,N/A,,Clear,110,2012-11-25 10:53:00
5:53 AM,34.0,30.0,85,30.12,10.0,SSE,6.9,-,N/A,,Clear,150,2012-11-25 11:53:00
6:53 AM,36.0,30.9,82,30.13,10.0,SSE,6.9,-,N/A,,Clear,150,2012-11-25 12:53:00
7:53 AM,39.0,33.1,79,30.14,10.0,SSE,4.6,-,N/A,,Clear,150,2012-11-25 13:53:00
8:53 AM,46.0,37.0,71,30.15,10.0,SSE,9.2,-,N/A,,Clear,160,2012-11-25 14:53:00
9:53 AM,51.1,37.0,59,30.15,10.0,SSE,6.9,-,N/A,,Clear,160,2012-11-25 15:53:00
10:53 AM,55.9,39.0,53,30.13,10.0,South,9.2,-,N/A,,Clear,170,2012-11-25 16:53:00
11:53 AM,62.1,39.9,44,30.09,10.0,SSE,8.1,-,N/A,,Clear,160,2012-11-25 17:53:00
12:53 PM,64.0,37.9,38,30.05,10.0,South,9.2,-,N/A,,Clear,180,2012-11-25 18:53:00
1:53 PM,66.0,39.9,38,30.01,10.0,SSE,9.2,-,N/A,,Clear,150,2012-11-25 19:53:00
2:53 PM,66.9,41.0,39,29.99,10.0,South,12.7,-,N/A,,Clear,170,2012-11-25 20:53:00
3:53 PM,66.0,43.0,43,29.98,10.0,South,11.5,-,N/A,,Clear,180,2012-11-25 21:53:00
4:53 PM,64.0,43.0,46,29.97,10.0,South,10.4,-,N/A,,Clear,170,2012-11-25 22:53:00
5:53 PM,61.0,43.0,52,29.97,10.0,South,9.2,-,N/A,,Clear,170,2012-11-25 23:53:00
6:53 PM,57.9,43.0,58,29.97,10.0,SSE,8.1,-,N/A,,Clear,160,2012-11-26 00:53:00
7:53 PM,59.0,45.0,60,29.97,10.0,SSE,9.2,-,N/A,,Clear,160,2012-11-26 01:53:00
8:53 PM,59.0,46.0,62,29.97,10.0,South,12.7,-,N/A,,Clear,170,2012-11-26 02:53:00
9:53 PM,57.0,48.0,72,29.98,10.0,South,8.1,-,N/A,,Clear,170,2012-11-26 03:53:00
10:53 PM,54.0,48.0,80,29.99,10.0,SSE,5.8,-,N/A,,Clear,160,2012-11-26 04:53:00
11:53 PM,53.1,48.9,86,29.99,10.0,SSE,6.9,-,N/A,,Clear,150,2012-11-26 05:53:00